YBMA

Details ICAO YBMA (ISA)
Name Mount Isa
Region Australia
Timezone Australia/Brisbane (UTC+10.0)
Plans Departing 735
Arriving 848
Stats Elevation 1,121 ft / 342 m (AMSL)
Location -20.666400° 139.488000°
Runways 1
Magnetic Variation 5.569° E
Sunrise 2020-07-03 21:20:16 UTC / 2020-07-04 07:20:16 Local
Sunset 2020-07-04 08:14:50 UTC / 2020-07-04 18:14:50 Local
Advertisement - Login to hide

Runways

ID Width Length Bearing (true/mag) Surface Threshold Overrun Markings Lighting
16 148 ft / 45 m 8,859 ft / 2,700 m 167.80° / 162.23° ASPHALT 210 ft / 64 m 79 ft / 24 m APP EDGE THRESHOLD
34 148 ft / 45 m 8,859 ft / 2,700 m 347.80° / 342.23° ASPHALT 213 ft / 65 m 49 ft / 15 m APP EDGE THRESHOLD

Map

Weather


0- 5 10 15 20 25 30 35+ Temperature / °C

Clouds and Precipitation
Forecast for 2020-07-03 18:00 UTC. Updated 32 minutes ago

Ground ~20,000 ft ~40,000 ft Winds

METAR

YBMA 031600Z AUTO 17013KT 9999 // NCD 15/M01 Q1025

TAF

TAF YBMA 031034Z 0312/0400 17014KT CAVOK FM032300 15015G25KT CAVOK

Frequencies

Unicom 126.50 MHz CTAF
Warning: Do not use this data for real-world aviation or navigation. No guarantee of current accuracy is given.